sensor_id;sensor_type;location;lat;lon;timestamp;pressure;altitude;pressure_sealevel;temperature;humidity
77799;BME280;66989;50.426;15.352;2023-06-22T00:01:58;98478.34;;;20.30;89.60
77799;BME280;66989;50.426;15.352;2023-06-22T00:04:23;98476.66;;;20.29;89.89
77799;BME280;66989;50.426;15.352;2023-06-22T00:06:49;98476.84;;;20.28;90.03
77799;BME280;66989;50.426;15.352;2023-06-22T00:09:14;98481.03;;;20.30;89.54
77799;BME280;66989;50.426;15.352;2023-06-22T00:11:39;98474.97;;;20.36;89.80
77799;BME280;66989;50.426;15.352;2023-06-22T00:14:05;98481.13;;;20.45;89.40
77799;BME280;66989;50.426;15.352;2023-06-22T00:16:34;98484.63;;;20.54;89.05
77799;BME280;66989;50.426;15.352;2023-06-22T00:19:00;98485.75;;;20.59;88.44
77799;BME280;66989;50.426;15.352;2023-06-22T00:21:26;98491.13;;;20.59;88.10
77799;BME280;66989;50.426;15.352;2023-06-22T00:23:52;98492.78;;;20.60;87.77
77799;BME280;66989;50.426;15.352;2023-06-22T00:26:17;98497.31;;;20.60;87.83
77799;BME280;66989;50.426;15.352;2023-06-22T00:28:42;98498.16;;;20.60;87.55
77799;BME280;66989;50.426;15.352;2023-06-22T00:31:08;98502.22;;;20.56;87.56
77799;BME280;66989;50.426;15.352;2023-06-22T00:33:33;98495.84;;;20.57;87.71
77799;BME280;66989;50.426;15.352;2023-06-22T00:35:59;98492.47;;;20.55;87.60
77799;BME280;66989;50.426;15.352;2023-06-22T00:38:24;98504.38;;;20.53;87.57
77799;BME280;66989;50.426;15.352;2023-06-22T00:40:49;98505.22;;;20.53;87.83
77799;BME280;66989;50.426;15.352;2023-06-22T00:43:15;98514.28;;;20.52;88.16
77799;BME280;66989;50.426;15.352;2023-06-22T00:45:40;98510.91;;;20.50;88.16
77799;BME280;66989;50.426;15.352;2023-06-22T00:48:06;98508.91;;;20.52;87.98
77799;BME280;66989;50.426;15.352;2023-06-22T00:50:33;98512.44;;;20.53;87.81
77799;BME280;66989;50.426;15.352;2023-06-22T00:53:03;98515.28;;;20.51;87.96
77799;BME280;66989;50.426;15.352;2023-06-22T00:55:35;98505.91;;;20.47;88.50
77799;BME280;66989;50.426;15.352;2023-06-22T00:58:03;98506.56;;;20.49;88.03
77799;BME280;66989;50.426;15.352;2023-06-22T01:00:31;98512.44;;;20.44;88.42
77799;BME280;66989;50.426;15.352;2023-06-22T01:02:58;98516.31;;;20.42;88.33
77799;BME280;66989;50.426;15.352;2023-06-22T01:05:24;98509.13;;;20.34;88.85
77799;BME280;66989;50.426;15.352;2023-06-22T01:10:43;98503.97;;;20.25;89.51
77799;BME280;66989;50.426;15.352;2023-06-22T01:13:28;98506.34;;;20.19;89.67
77799;BME280;66989;50.426;15.352;2023-06-22T01:18:29;98515.53;;;20.17;89.88
77799;BME280;66989;50.426;15.352;2023-06-22T01:20:55;98509.16;;;20.18;90.22
77799;BME280;66989;50.426;15.352;2023-06-22T01:23:35;98507.31;;;20.18;90.34
77799;BME280;66989;50.426;15.352;2023-06-22T01:26:40;98510.84;;;20.19;90.00
77799;BME280;66989;50.426;15.352;2023-06-22T01:29:09;98505.31;;;20.20;90.07
77799;BME280;66989;50.426;15.352;2023-06-22T01:31:39;98500.63;;;20.22;89.93
77799;BME280;66989;50.426;15.352;2023-06-22T01:34:06;98498.78;;;20.23;89.68
77799;BME280;66989;50.426;15.352;2023-06-22T01:36:33;98493.94;;;20.27;89.67
77799;BME280;66989;50.426;15.352;2023-06-22T01:39:00;98498.28;;;20.28;89.21
77799;BME280;66989;50.426;15.352;2023-06-22T01:41:28;98491.56;;;20.23;88.84
77799;BME280;66989;50.426;15.352;2023-06-22T01:43:55;98494.75;;;20.19;88.56
77799;BME280;66989;50.426;15.352;2023-06-22T01:46:21;98500.81;;;20.13;88.75
77799;BME280;66989;50.426;15.352;2023-06-22T01:48:47;98496.78;;;20.09;88.67
77799;BME280;66989;50.426;15.352;2023-06-22T01:51:13;98494.66;;;20.04;88.92
77799;BME280;66989;50.426;15.352;2023-06-22T01:53:39;98498.66;;;20.00;89.10
77799;BME280;66989;50.426;15.352;2023-06-22T01:56:05;98497.16;;;19.98;88.95
77799;BME280;66989;50.426;15.352;2023-06-22T01:58:31;98495.81;;;19.93;89.30
77799;BME280;66989;50.426;15.352;2023-06-22T02:01:11;98503.53;;;19.88;89.81
77799;BME280;66989;50.426;15.352;2023-06-22T02:03:42;98497.88;;;19.83;89.75
77799;BME280;66989;50.426;15.352;2023-06-22T02:06:17;98502.34;;;19.83;89.89
77799;BME280;66989;50.426;15.352;2023-06-22T02:08:49;98497.19;;;19.81;90.43
77799;BME280;66989;50.426;15.352;2023-06-22T02:11:18;98486.47;;;19.81;90.65
77799;BME280;66989;50.426;15.352;2023-06-22T02:13:45;98477.44;;;19.82;90.50
77799;BME280;66989;50.426;15.352;2023-06-22T02:16:13;98474.75;;;19.82;90.86
77799;BME280;66989;50.426;15.352;2023-06-22T02:18:46;98477.78;;;19.79;91.26
77799;BME280;66989;50.426;15.352;2023-06-22T02:21:11;98477.09;;;19.77;91.59
77799;BME280;66989;50.426;15.352;2023-06-22T02:23:37;98492.19;;;19.78;91.55
77799;BME280;66989;50.426;15.352;2023-06-22T02:26:03;98496.84;;;19.76;91.45
77799;BME280;66989;50.426;15.352;2023-06-22T02:28:28;98496.00;;;19.76;91.31
77799;BME280;66989;50.426;15.352;2023-06-22T02:30:54;98501.84;;;19.71;90.76
77799;BME280;66989;50.426;15.352;2023-06-22T02:33:19;98498.16;;;19.64;90.85
77799;BME280;66989;50.426;15.352;2023-06-22T02:35:46;98492.47;;;19.59;90.97
77799;BME280;66989;50.426;15.352;2023-06-22T02:38:14;98489.13;;;19.57;90.74
77799;BME280;66989;50.426;15.352;2023-06-22T02:40:39;98491.31;;;19.53;90.81
77799;BME280;66989;50.426;15.352;2023-06-22T02:43:05;98489.47;;;19.54;90.72
77799;BME280;66989;50.426;15.352;2023-06-22T02:45:30;98487.81;;;19.53;90.48
77799;BME280;66989;50.426;15.352;2023-06-22T02:47:56;98478.25;;;19.50;90.58
77799;BME280;66989;50.426;15.352;2023-06-22T02:50:21;98483.78;;;19.49;90.82
77799;BME280;66989;50.426;15.352;2023-06-22T02:52:46;98490.16;;;19.48;90.68
77799;BME280;66989;50.426;15.352;2023-06-22T02:55:12;98494.97;;;19.44;90.72
77799;BME280;66989;50.426;15.352;2023-06-22T02:57:37;98499.00;;;19.40;90.45
77799;BME280;66989;50.426;15.352;2023-06-22T03:00:04;98492.63;;;19.33;90.69
77799;BME280;66989;50.426;15.352;2023-06-22T03:02:46;98494.47;;;19.32;90.67
77799;BME280;66989;50.426;15.352;2023-06-22T03:05:12;98503.00;;;19.28;89.99
77799;BME280;66989;50.426;15.352;2023-06-22T03:07:43;98501.66;;;19.24;90.22
77799;BME280;66989;50.426;15.352;2023-06-22T03:10:10;98497.63;;;19.19;90.52
77799;BME280;66989;50.426;15.352;2023-06-22T03:12:39;98503.31;;;19.16;90.79
77799;BME280;66989;50.426;15.352;2023-06-22T03:15:10;98506.00;;;19.16;91.22
77799;BME280;66989;50.426;15.352;2023-06-22T03:17:36;98508.50;;;19.18;91.55
77799;BME280;66989;50.426;15.352;2023-06-22T03:20:04;98514.50;;;19.20;91.84
77799;BME280;66989;50.426;15.352;2023-06-22T03:22:41;98501.81;;;19.22;92.02
77799;BME280;66989;50.426;15.352;2023-06-22T03:25:08;98498.13;;;19.23;91.13
77799;BME280;66989;50.426;15.352;2023-06-22T03:27:41;98494.63;;;19.23;91.17
77799;BME280;66989;50.426;15.352;2023-06-22T03:30:08;98502.47;;;19.24;90.85
77799;BME280;66989;50.426;15.352;2023-06-22T03:32:34;98502.81;;;19.29;90.94
77799;BME280;66989;50.426;15.352;2023-06-22T03:34:59;98497.81;;;19.34;90.99
77799;BME280;66989;50.426;15.352;2023-06-22T03:37:26;98490.47;;;19.44;90.84
77799;BME280;66989;50.426;15.352;2023-06-22T03:39:52;98494.81;;;19.54;89.85
77799;BME280;66989;50.426;15.352;2023-06-22T03:42:18;98488.81;;;19.60;89.16
77799;BME280;66989;50.426;15.352;2023-06-22T03:44:43;98495.97;;;19.67;89.00
77799;BME280;66989;50.426;15.352;2023-06-22T03:47:08;98494.53;;;19.73;88.71
77799;BME280;66989;50.426;15.352;2023-06-22T03:49:35;98501.88;;;19.79;88.24
77799;BME280;66989;50.426;15.352;2023-06-22T03:52:01;98499.69;;;19.83;87.73
77799;BME280;66989;50.426;15.352;2023-06-22T03:54:30;98494.84;;;19.86;87.45
77799;BME280;66989;50.426;15.352;2023-06-22T03:56:57;98491.84;;;19.89;87.13
77799;BME280;66989;50.426;15.352;2023-06-22T03:59:23;98488.31;;;19.89;87.12
77799;BME280;66989;50.426;15.352;2023-06-22T04:01:48;98494.84;;;19.94;86.65
77799;BME280;66989;50.426;15.352;2023-06-22T04:04:14;98506.69;;;20.00;86.94
77799;BME280;66989;50.426;15.352;2023-06-22T04:06:39;98507.88;;;20.06;86.47
77799;BME280;66989;50.426;15.352;2023-06-22T04:09:06;98508.84;;;20.13;86.39
77799;BME280;66989;50.426;15.352;2023-06-22T04:11:31;98502.78;;;20.19;86.02
77799;BME280;66989;50.426;15.352;2023-06-22T04:13:56;98501.97;;;20.27;86.00
77799;BME280;66989;50.426;15.352;2023-06-22T04:16:22;98507.28;;;20.35;85.76
77799;BME280;66989;50.426;15.352;2023-06-22T04:18:47;98509.75;;;20.44;85.82
77799;BME280;66989;50.426;15.352;2023-06-22T04:21:13;98509.75;;;20.53;85.79
77799;BME280;66989;50.426;15.352;2023-06-22T04:23:38;98502.69;;;20.60;85.54
77799;BME280;66989;50.426;15.352;2023-06-22T04:26:03;98493.63;;;20.69;85.03
77799;BME280;66989;50.426;15.352;2023-06-22T04:28:29;98496.94;;;20.79;84.80
77799;BME280;66989;50.426;15.352;2023-06-22T04:31:03;98499.41;;;20.89;84.60
77799;BME280;66989;50.426;15.352;2023-06-22T04:33:28;98491.59;;;21.02;84.13
77799;BME280;66989;50.426;15.352;2023-06-22T04:35:57;98487.88;;;21.11;84.04
77799;BME280;66989;50.426;15.352;2023-06-22T04:38:23;98499.19;;;21.21;83.79
77799;BME280;66989;50.426;15.352;2023-06-22T04:40:49;98505.59;;;21.20;83.72
77799;BME280;66989;50.426;15.352;2023-06-22T04:43:15;98509.78;;;21.23;83.67
77799;BME280;66989;50.426;15.352;2023-06-22T04:45:40;98508.91;;;21.22;83.71
77799;BME280;66989;50.426;15.352;2023-06-22T04:48:06;98511.91;;;21.27;83.66
77799;BME280;66989;50.426;15.352;2023-06-22T04:50:31;98516.09;;;21.30;84.01
77799;BME280;66989;50.426;15.352;2023-06-22T04:52:57;98514.88;;;21.33;84.07
77799;BME280;66989;50.426;15.352;2023-06-22T04:55:23;98509.78;;;21.46;83.77
77799;BME280;66989;50.426;15.352;2023-06-22T04:57:51;98510.88;;;21.60;82.79
77799;BME280;66989;50.426;15.352;2023-06-22T05:00:17;98504.78;;;21.66;82.79
77799;BME280;66989;50.426;15.352;2023-06-22T05:02:45;98498.88;;;21.70;82.64
77799;BME280;66989;50.426;15.352;2023-06-22T05:05:11;98499.75;;;21.86;82.60
77799;BME280;66989;50.426;15.352;2023-06-22T05:07:39;98502.47;;;22.00;81.82
77799;BME280;66989;50.426;15.352;2023-06-22T05:10:09;98495.91;;;22.18;79.95
77799;BME280;66989;50.426;15.352;2023-06-22T05:12:35;98498.50;;;22.26;79.89
77799;BME280;66989;50.426;15.352;2023-06-22T05:15:01;98502.63;;;22.37;80.03
77799;BME280;66989;50.426;15.352;2023-06-22T05:17:27;98494.75;;;22.50;79.13
77799;BME280;66989;50.426;15.352;2023-06-22T05:19:52;98497.44;;;22.50;78.80
77799;BME280;66989;50.426;15.352;2023-06-22T05:22:18;98503.44;;;22.67;78.77
77799;BME280;66989;50.426;15.352;2023-06-22T05:24:43;98497.41;;;22.79;77.97
77799;BME280;66989;50.426;15.352;2023-06-22T05:27:09;98496.59;;;22.79;77.90
77799;BME280;66989;50.426;15.352;2023-06-22T05:29:36;98496.28;;;22.89;78.06
77799;BME280;66989;50.426;15.352;2023-06-22T05:32:02;98502.00;;;23.00;76.89
77799;BME280;66989;50.426;15.352;2023-06-22T05:34:27;98504.00;;;23.13;75.84
77799;BME280;66989;50.426;15.352;2023-06-22T05:36:53;98508.19;;;23.16;76.42
77799;BME280;66989;50.426;15.352;2023-06-22T05:39:18;98504.09;;;23.20;76.30
77799;BME280;66989;50.426;15.352;2023-06-22T05:41:45;98516.13;;;23.24;76.09
77799;BME280;66989;50.426;15.352;2023-06-22T05:44:11;98515.28;;;23.38;76.49
77799;BME280;66989;50.426;15.352;2023-06-22T05:46:36;98511.59;;;23.61;75.57
77799;BME280;66989;50.426;15.352;2023-06-22T05:49:02;98510.13;;;23.86;74.89
77799;BME280;66989;50.426;15.352;2023-06-22T05:51:27;98517.75;;;24.04;74.12
77799;BME280;66989;50.426;15.352;2023-06-22T05:53:52;98516.91;;;24.25;73.36
77799;BME280;66989;50.426;15.352;2023-06-22T05:56:18;98518.09;;;24.50;72.39
77799;BME280;66989;50.426;15.352;2023-06-22T05:58:43;98529.81;;;24.71;71.17
77799;BME280;66989;50.426;15.352;2023-06-22T06:01:09;98530.91;;;24.83;70.61
77799;BME280;66989;50.426;15.352;2023-06-22T06:03:36;98529.25;;;24.82;70.15
77799;BME280;66989;50.426;15.352;2023-06-22T06:06:07;98537.09;;;25.11;70.11
77799;BME280;66989;50.426;15.352;2023-06-22T06:08:32;98541.75;;;25.37;68.86
77799;BME280;66989;50.426;15.352;2023-06-22T06:10:58;98540.94;;;25.50;67.13
77799;BME280;66989;50.426;15.352;2023-06-22T06:13:23;98547.81;;;25.59;66.80
77799;BME280;66989;50.426;15.352;2023-06-22T06:15:48;98548.50;;;25.75;67.11
77799;BME280;66989;50.426;15.352;2023-06-22T06:18:16;98552.88;;;26.02;66.08
77799;BME280;66989;50.426;15.352;2023-06-22T06:20:42;98560.34;;;26.33;65.73
77799;BME280;66989;50.426;15.352;2023-06-22T06:23:08;98570.97;;;26.55;64.09
77799;BME280;66989;50.426;15.352;2023-06-22T06:25:33;98568.88;;;26.63;63.68
77799;BME280;66989;50.426;15.352;2023-06-22T06:27:58;98571.72;;;26.95;63.46
77799;BME280;66989;50.426;15.352;2023-06-22T06:30:24;98567.75;;;26.98;61.77
77799;BME280;66989;50.426;15.352;2023-06-22T06:32:50;98551.50;;;27.04;60.85
77799;BME280;66989;50.426;15.352;2023-06-22T06:35:15;98546.50;;;27.08;61.12
77799;BME280;66989;50.426;15.352;2023-06-22T06:37:43;98549.59;;;27.05;60.76
77799;BME280;66989;50.426;15.352;2023-06-22T06:40:10;98535.88;;;27.06;61.00
77799;BME280;66989;50.426;15.352;2023-06-22T06:42:37;98523.75;;;27.15;60.80
77799;BME280;66989;50.426;15.352;2023-06-22T06:45:06;98525.53;;;26.83;62.17
77799;BME280;66989;50.426;15.352;2023-06-22T06:47:32;98518.63;;;27.07;61.60
77799;BME280;66989;50.426;15.352;2023-06-22T06:49:57;98525.59;;;27.28;61.24
77799;BME280;66989;50.426;15.352;2023-06-22T06:52:22;98532.09;;;27.59;60.32
77799;BME280;66989;50.426;15.352;2023-06-22T06:54:48;98530.63;;;27.56;60.46
77799;BME280;66989;50.426;15.352;2023-06-22T06:57:13;98533.41;;;27.81;59.82
77799;BME280;66989;50.426;15.352;2023-06-22T06:59:40;98528.38;;;27.85;58.65
77799;BME280;66989;50.426;15.352;2023-06-22T07:02:05;98530.47;;;28.08;59.07
77799;BME280;66989;50.426;15.352;2023-06-22T07:04:30;98530.16;;;28.22;58.07
77799;BME280;66989;50.426;15.352;2023-06-22T07:06:56;98520.22;;;28.60;58.06
77799;BME280;66989;50.426;15.352;2023-06-22T07:09:21;98514.38;;;28.93;56.61
77799;BME280;66989;50.426;15.352;2023-06-22T07:11:47;98507.75;;;29.25;55.39
77799;BME280;66989;50.426;15.352;2023-06-22T07:14:12;98513.25;;;29.49;54.99
77799;BME280;66989;50.426;15.352;2023-06-22T07:16:37;98515.53;;;29.82;53.17
77799;BME280;66989;50.426;15.352;2023-06-22T07:19:03;98523.63;;;29.70;53.28
77799;BME280;66989;50.426;15.352;2023-06-22T07:21:28;98511.59;;;29.48;52.62
77799;BME280;66989;50.426;15.352;2023-06-22T07:23:53;98514.00;;;29.56;52.32
77799;BME280;66989;50.426;15.352;2023-06-22T07:26:20;98513.03;;;29.50;52.61
77799;BME280;66989;50.426;15.352;2023-06-22T07:28:45;98501.56;;;29.48;52.25
77799;BME280;66989;50.426;15.352;2023-06-22T07:31:10;98508.06;;;28.99;51.87
77799;BME280;66989;50.426;15.352;2023-06-22T07:33:36;98503.00;;;29.02;52.21
77799;BME280;66989;50.426;15.352;2023-06-22T07:36:01;98499.34;;;28.79;52.83
77799;BME280;66989;50.426;15.352;2023-06-22T07:38:27;98509.75;;;28.63;53.29
77799;BME280;66989;50.426;15.352;2023-06-22T07:40:53;98499.63;;;28.70;53.34
77799;BME280;66989;50.426;15.352;2023-06-22T07:43:19;98502.50;;;28.75;52.67
77799;BME280;66989;50.426;15.352;2023-06-22T07:45:50;98504.81;;;28.90;53.07
77799;BME280;66989;50.426;15.352;2023-06-22T07:48:19;98490.22;;;29.40;51.54
77799;BME280;66989;50.426;15.352;2023-06-22T07:50:45;98494.03;;;29.92;51.18
77799;BME280;66989;50.426;15.352;2023-06-22T07:53:10;98487.28;;;30.07;50.52
77799;BME280;66989;50.426;15.352;2023-06-22T07:55:35;98494.25;;;30.14;49.51
77799;BME280;66989;50.426;15.352;2023-06-22T07:58:01;98482.44;;;29.97;50.47
77799;BME280;66989;50.426;15.352;2023-06-22T08:00:26;98478.41;;;30.11;50.77
77799;BME280;66989;50.426;15.352;2023-06-22T08:02:52;98477.72;;;30.27;49.47
77799;BME280;66989;50.426;15.352;2023-06-22T08:05:17;98476.41;;;30.18;48.22
77799;BME280;66989;50.426;15.352;2023-06-22T08:07:43;98466.47;;;30.59;48.02
77799;BME280;66989;50.426;15.352;2023-06-22T08:10:12;98465.72;;;30.75;47.23
77799;BME280;66989;50.426;15.352;2023-06-22T08:12:41;98456.53;;;30.29;48.80
77799;BME280;66989;50.426;15.352;2023-06-22T08:15:07;98458.69;;;30.39;48.37
77799;BME280;66989;50.426;15.352;2023-06-22T08:17:34;98455.91;;;30.63;47.34
77799;BME280;66989;50.426;15.352;2023-06-22T08:19:59;98446.59;;;30.87;47.81
77799;BME280;66989;50.426;15.352;2023-06-22T08:22:25;98453.06;;;31.10;47.01
77799;BME280;66989;50.426;15.352;2023-06-22T08:24:50;98445.06;;;31.20;46.57
77799;BME280;66989;50.426;15.352;2023-06-22T08:27:15;98437.50;;;31.22;45.92
77799;BME280;66989;50.426;15.352;2023-06-22T08:29:43;98439.22;;;31.11;45.91
77799;BME280;66989;50.426;15.352;2023-06-22T08:32:10;98435.25;;;30.78;45.56
77799;BME280;66989;50.426;15.352;2023-06-22T08:34:36;98433.16;;;30.80;45.85
77799;BME280;66989;50.426;15.352;2023-06-22T08:37:01;98440.59;;;30.85;45.90
77799;BME280;66989;50.426;15.352;2023-06-22T08:39:31;98438.44;;;30.87;45.69
77799;BME280;66989;50.426;15.352;2023-06-22T08:41:56;98439.84;;;31.01;43.95
77799;BME280;66989;50.426;15.352;2023-06-22T08:44:22;98434.94;;;30.75;43.38
77799;BME280;66989;50.426;15.352;2023-06-22T08:46:47;98425.91;;;31.15;43.94
77799;BME280;66989;50.426;15.352;2023-06-22T08:49:13;98422.81;;;31.23;44.25
77799;BME280;66989;50.426;15.352;2023-06-22T08:51:38;98415.38;;;31.35;43.74
77799;BME280;66989;50.426;15.352;2023-06-22T08:54:03;98425.88;;;31.26;43.25
77799;BME280;66989;50.426;15.352;2023-06-22T08:56:29;98411.25;;;31.32;43.01
77799;BME280;66989;50.426;15.352;2023-06-22T08:58:54;98411.81;;;31.18;42.98
77799;BME280;66989;50.426;15.352;2023-06-22T09:01:20;98426.41;;;31.12;43.70
77799;BME280;66989;50.426;15.352;2023-06-22T09:03:45;98416.97;;;31.48;43.42
77799;BME280;66989;50.426;15.352;2023-06-22T09:06:19;98420.78;;;31.80;42.82
77799;BME280;66989;50.426;15.352;2023-06-22T09:08:45;98414.13;;;32.27;41.59
77799;BME280;66989;50.426;15.352;2023-06-22T09:11:11;98419.53;;;32.44;41.32
77799;BME280;66989;50.426;15.352;2023-06-22T09:13:36;98424.66;;;32.18;41.37
77799;BME280;66989;50.426;15.352;2023-06-22T09:16:02;98403.78;;;32.29;41.78
77799;BME280;66989;50.426;15.352;2023-06-22T09:18:27;98414.91;;;32.44;41.16
77799;BME280;66989;50.426;15.352;2023-06-22T09:20:53;98410.97;;;31.79;42.13
77799;BME280;66989;50.426;15.352;2023-06-22T09:23:18;98404.38;;;31.58;42.85
77799;BME280;66989;50.426;15.352;2023-06-22T09:25:43;98397.00;;;31.59;42.94
77799;BME280;66989;50.426;15.352;2023-06-22T09:28:09;98401.81;;;31.23;43.36
77799;BME280;66989;50.426;15.352;2023-06-22T09:30:34;98406.34;;;31.63;42.93
77799;BME280;66989;50.426;15.352;2023-06-22T09:32:59;98400.09;;;32.18;42.13
77799;BME280;66989;50.426;15.352;2023-06-22T09:35:26;98399.66;;;32.26;41.25
77799;BME280;66989;50.426;15.352;2023-06-22T09:37:51;98405.81;;;32.00;41.60
77799;BME280;66989;50.426;15.352;2023-06-22T09:40:17;98400.63;;;32.59;41.08
77799;BME280;66989;50.426;15.352;2023-06-22T09:42:42;98388.75;;;33.19;40.26
77799;BME280;66989;50.426;15.352;2023-06-22T09:45:08;98388.66;;;33.09;40.04
77799;BME280;66989;50.426;15.352;2023-06-22T09:47:34;98385.03;;;33.62;38.88
77799;BME280;66989;50.426;15.352;2023-06-22T09:49:59;98390.00;;;33.66;37.82
77799;BME280;66989;50.426;15.352;2023-06-22T09:52:25;98389.06;;;32.96;39.34
77799;BME280;66989;50.426;15.352;2023-06-22T09:54:50;98391.94;;;33.11;39.51
77799;BME280;66989;50.426;15.352;2023-06-22T09:57:16;98386.69;;;33.31;38.30
77799;BME280;66989;50.426;15.352;2023-06-22T09:59:41;98386.44;;;33.65;37.63
77799;BME280;66989;50.426;15.352;2023-06-22T10:02:07;98397.28;;;33.55;37.76
77799;BME280;66989;50.426;15.352;2023-06-22T10:04:33;98396.84;;;33.09;38.14
77799;BME280;66989;50.426;15.352;2023-06-22T10:06:59;98398.91;;;33.24;38.66
77799;BME280;66989;50.426;15.352;2023-06-22T10:09:24;98387.22;;;33.28;38.18
77799;BME280;66989;50.426;15.352;2023-06-22T10:11:50;98386.28;;;33.45;38.36
77799;BME280;66989;50.426;15.352;2023-06-22T10:14:15;98381.50;;;34.04;37.53
77799;BME280;66989;50.426;15.352;2023-06-22T10:16:42;98374.44;;;34.66;35.60
77799;BME280;66989;50.426;15.352;2023-06-22T10:19:07;98381.16;;;33.53;37.11
77799;BME280;66989;50.426;15.352;2023-06-22T10:21:33;98364.25;;;33.99;36.85
77799;BME280;66989;50.426;15.352;2023-06-22T10:23:58;98358.50;;;34.48;36.44
77799;BME280;66989;50.426;15.352;2023-06-22T10:26:26;98366.25;;;34.76;35.80
77799;BME280;66989;50.426;15.352;2023-06-22T10:28:55;98360.16;;;34.54;36.19
77799;BME280;66989;50.426;15.352;2023-06-22T10:31:20;98359.44;;;34.84;35.37
77799;BME280;66989;50.426;15.352;2023-06-22T10:33:47;98361.94;;;34.28;35.70
77799;BME280;66989;50.426;15.352;2023-06-22T10:36:12;98361.41;;;33.83;37.28
77799;BME280;66989;50.426;15.352;2023-06-22T10:38:37;98352.47;;;33.98;37.39
77799;BME280;66989;50.426;15.352;2023-06-22T10:41:03;98361.06;;;34.17;36.97
77799;BME280;66989;50.426;15.352;2023-06-22T10:43:28;98361.50;;;33.99;36.71
77799;BME280;66989;50.426;15.352;2023-06-22T10:45:54;98362.22;;;33.47;37.39
77799;BME280;66989;50.426;15.352;2023-06-22T10:48:19;98362.50;;;33.45;37.96
77799;BME280;66989;50.426;15.352;2023-06-22T10:50:46;98353.41;;;33.40;38.62
77799;BME280;66989;50.426;15.352;2023-06-22T10:53:12;98352.91;;;33.48;39.14
77799;BME280;66989;50.426;15.352;2023-06-22T10:55:37;98350.94;;;33.75;38.09
77799;BME280;66989;50.426;15.352;2023-06-22T10:58:04;98345.63;;;33.96;35.97
77799;BME280;66989;50.426;15.352;2023-06-22T11:00:29;98352.06;;;34.22;35.45
77799;BME280;66989;50.426;15.352;2023-06-22T11:02:54;98342.66;;;34.02;36.71
77799;BME280;66989;50.426;15.352;2023-06-22T11:05:20;98344.56;;;34.64;36.27
77799;BME280;66989;50.426;15.352;2023-06-22T11:07:45;98347.13;;;34.91;34.34
77799;BME280;66989;50.426;15.352;2023-06-22T11:10:12;98344.03;;;34.57;34.51
77799;BME280;66989;50.426;15.352;2023-06-22T11:12:37;98339.63;;;34.04;35.67
77799;BME280;66989;50.426;15.352;2023-06-22T11:15:03;98336.47;;;34.22;35.75
77799;BME280;66989;50.426;15.352;2023-06-22T11:17:28;98332.94;;;34.32;35.94
77799;BME280;66989;50.426;15.352;2023-06-22T11:19:54;98329.78;;;34.65;35.08
77799;BME280;66989;50.426;15.352;2023-06-22T11:22:19;98334.81;;;34.21;36.02
77799;BME280;66989;50.426;15.352;2023-06-22T11:24:44;98327.06;;;34.03;36.28
77799;BME280;66989;50.426;15.352;2023-06-22T11:27:10;98332.78;;;33.59;37.78
77799;BME280;66989;50.426;15.352;2023-06-22T11:29:35;98335.72;;;33.20;38.02
77799;BME280;66989;50.426;15.352;2023-06-22T11:32:01;98332.44;;;33.18;37.58
77799;BME280;66989;50.426;15.352;2023-06-22T11:34:26;98328.84;;;33.12;37.95
77799;BME280;66989;50.426;15.352;2023-06-22T11:36:53;98322.66;;;33.59;37.00
77799;BME280;66989;50.426;15.352;2023-06-22T11:39:18;98331.00;;;32.83;38.06
77799;BME280;66989;50.426;15.352;2023-06-22T11:41:44;98326.38;;;32.84;38.54
77799;BME280;66989;50.426;15.352;2023-06-22T11:44:09;98324.09;;;33.03;39.41
77799;BME280;66989;50.426;15.352;2023-06-22T11:46:36;98326.66;;;33.15;39.26
77799;BME280;66989;50.426;15.352;2023-06-22T11:49:02;98307.09;;;33.60;38.15
77799;BME280;66989;50.426;15.352;2023-06-22T11:51:28;98306.44;;;33.85;37.61
77799;BME280;66989;50.426;15.352;2023-06-22T11:53:56;98306.19;;;33.92;37.85
77799;BME280;66989;50.426;15.352;2023-06-22T11:56:21;98309.84;;;34.07;38.18
77799;BME280;66989;50.426;15.352;2023-06-22T11:58:47;98301.97;;;33.36;39.71
77799;BME280;66989;50.426;15.352;2023-06-22T12:01:12;98304.94;;;33.30;39.13
77799;BME280;66989;50.426;15.352;2023-06-22T12:03:40;98307.94;;;33.01;39.62
77799;BME280;66989;50.426;15.352;2023-06-22T12:06:05;98290.63;;;33.55;38.31
77799;BME280;66989;50.426;15.352;2023-06-22T12:08:31;98292.41;;;33.76;38.25
77799;BME280;66989;50.426;15.352;2023-06-22T12:10:56;98282.69;;;33.96;37.29
77799;BME280;66989;50.426;15.352;2023-06-22T12:13:21;98279.38;;;33.94;37.61
77799;BME280;66989;50.426;15.352;2023-06-22T12:15:47;98277.03;;;34.23;37.29
77799;BME280;66989;50.426;15.352;2023-06-22T12:18:12;98284.81;;;34.56;36.82
77799;BME280;66989;50.426;15.352;2023-06-22T12:20:40;98289.06;;;33.64;37.27
77799;BME280;66989;50.426;15.352;2023-06-22T12:23:06;98278.09;;;33.59;37.81
77799;BME280;66989;50.426;15.352;2023-06-22T12:25:31;98282.44;;;33.55;38.10
77799;BME280;66989;50.426;15.352;2023-06-22T12:27:56;98285.94;;;33.13;38.55
77799;BME280;66989;50.426;15.352;2023-06-22T12:30:22;98282.34;;;32.80;39.54
77799;BME280;66989;50.426;15.352;2023-06-22T12:32:47;98293.47;;;32.47;39.95
77799;BME280;66989;50.426;15.352;2023-06-22T12:35:13;98298.28;;;31.96;41.73
77799;BME280;66989;50.426;15.352;2023-06-22T12:37:42;98281.22;;;32.05;41.62
77799;BME280;66989;50.426;15.352;2023-06-22T12:40:08;98282.69;;;32.35;40.36
77799;BME280;66989;50.426;15.352;2023-06-22T12:42:33;98273.31;;;33.07;39.45
77799;BME280;66989;50.426;15.352;2023-06-22T12:44:59;98254.44;;;33.43;38.83
77799;BME280;66989;50.426;15.352;2023-06-22T12:47:24;98256.94;;;33.92;37.52
77799;BME280;66989;50.426;15.352;2023-06-22T12:49:51;98250.38;;;33.93;37.77
77799;BME280;66989;50.426;15.352;2023-06-22T12:52:16;98255.16;;;33.65;38.45